Forside
METAR-TAF:

METAR-TAF

Lufthavne :

Beaver Falls, Pennsylvania, USA

Breddekreds: 40-46N, længdekreds: 080-24W, højde: 382 m

Aktuelle vejr

Denne rapport blev lavet for 24 minutter siden, kl. 21:15 UTC
Vind 8 kt fra vestsydvest med vindstød på up til 14 kt
Temperatur 1°C
Fugtighed 86%
Tryk 1011 hPa
Sigt: 16.1 km
Overskyet i en højde af 1000 ft

METAR: KBVI 262115Z AUTO 24008G14KT 10SM OVC010 01/M01 A2984 RMK AO2 T00081010

Tid: 16:39 (21:39 UTC)

Vejrudsigter

Denne rapport blev lavet for 43 minutter siden, kl. 20:56 UTC
Foreløbig gælder fra 26 på 21 UTC til 27 på 18 UTC
Vind 8 kt fra vestsydvest med vindstød på up til 16 kt
Sigt: 10 km
Overskyet i en højde af 1000 ft
let sne
Fra 27 på 0000 UTC
Vind 8 kt fra vestsydvest med vindstød på up til 16 kt
Sigt: 10 km
Overskyet i en højde af 800 ft
let sne
Fra 27 på 1700 UTC
Vind 8 kt fra vest
Sigt: 10 km
Overskyet i en højde af 1500 ft
let sne

TAF: KBVI 262056Z 2621/2718 24008G16KT P6SM -SN OVC010 FM270000 25008G16KT P6SM -SN OVC008 FM271700 27008KT P6SM -SN OVC015

Vejrobservationer og prognoser fra mere end 4000 lufthavne (METAR og TAF).

De gule og røde prikker repræsenterer de meteorologiske stationer.

Flyt musen over at se navnet på stationen.

Så klik over at se vejr observationer og prognoser.

At skifte det kort: Klik på de grønne knapper med et sort kors for at zoome ind; på den grønne knap med en bindestreg for at zoome ud; eller på de grønne pile for tilstødende kort.


METAR-TAF: